createdAt,value
2023-11-27T00:00:37.495Z,100452.00
2023-11-27T00:03:08.193Z,100448.00
2023-11-27T00:05:35.620Z,100455.00
2023-11-27T00:08:02.634Z,100428.00
2023-11-27T00:10:29.528Z,100440.00
2023-11-27T00:13:00.898Z,100439.00
2023-11-27T00:15:28.968Z,100440.00
2023-11-27T00:17:56.104Z,100444.00
2023-11-27T00:20:23.563Z,100448.00
2023-11-27T00:22:50.581Z,100443.00
2023-11-27T00:25:17.570Z,100438.00
2023-11-27T00:27:44.595Z,100440.00
2023-11-27T00:30:12.303Z,100434.00
2023-11-27T00:32:39.295Z,100436.00
2023-11-27T00:35:07.591Z,100416.00
2023-11-27T00:37:34.625Z,100423.00
2023-11-27T00:40:01.623Z,100415.00
2023-11-27T00:42:28.788Z,100424.00
2023-11-27T00:44:55.875Z,100414.00
2023-11-27T00:47:22.779Z,100410.00
2023-11-27T00:49:50.052Z,100410.00
2023-11-27T00:52:17.073Z,100410.00
2023-11-27T00:54:44.676Z,100409.00
2023-11-27T00:57:11.839Z,100402.00
2023-11-27T00:59:41.945Z,100400.00
2023-11-27T01:02:09.505Z,100388.00
2023-11-27T01:04:40.435Z,100401.00
2023-11-27T01:07:07.937Z,100387.00
2023-11-27T01:09:37.024Z,100397.00
2023-11-27T01:12:04.982Z,100397.00
2023-11-27T01:14:32.107Z,100385.00
2023-11-27T01:16:59.114Z,100385.00
2023-11-27T01:19:26.111Z,100380.00
2023-11-27T01:21:54.481Z,100386.00
2023-11-27T01:24:21.814Z,100383.00
2023-11-27T01:26:51.923Z,100390.00
2023-11-27T01:29:23.180Z,100386.00
2023-11-27T01:31:51.120Z,100379.00
2023-11-27T01:34:18.895Z,100379.00
2023-11-27T01:36:45.971Z,100371.00
2023-11-27T01:39:13.087Z,100372.00
2023-11-27T01:41:40.415Z,100380.00
2023-11-27T01:44:07.743Z,100370.00
2023-11-27T01:46:35.094Z,100363.00
2023-11-27T01:49:02.194Z,100370.00
2023-11-27T01:51:30.284Z,100365.00
2023-11-27T01:54:00.929Z,100375.00
2023-11-27T01:56:29.891Z,100367.00
2023-11-27T01:58:58.497Z,100362.00
2023-11-27T02:01:25.637Z,100360.00
2023-11-27T02:03:52.759Z,100355.00
2023-11-27T02:06:19.682Z,100352.00
2023-11-27T02:08:46.824Z,100359.00
2023-11-27T02:11:19.446Z,100353.00
2023-11-27T02:13:46.935Z,100353.00
2023-11-27T02:16:14.427Z,100346.00
2023-11-27T02:18:41.436Z,100345.00
2023-11-27T02:21:09.277Z,100352.00
2023-11-27T02:23:36.268Z,100338.00
2023-11-27T02:26:03.181Z,100338.00
2023-11-27T02:28:30.153Z,100339.00
2023-11-27T02:30:57.356Z,100338.00
2023-11-27T02:33:26.611Z,100351.00
2023-11-27T02:35:54.726Z,100341.00
2023-11-27T02:38:21.638Z,100338.00
2023-11-27T02:40:48.521Z,100341.00
2023-11-27T02:43:15.805Z,100348.00
2023-11-27T02:45:42.899Z,100348.00
2023-11-27T02:48:09.826Z,100334.00
2023-11-27T02:50:36.768Z,100325.00
2023-11-27T02:53:03.645Z,100334.00
2023-11-27T02:55:30.527Z,100336.00
2023-11-27T02:57:57.711Z,100321.00
2023-11-27T03:00:24.716Z,100334.00
2023-11-27T03:02:51.705Z,100330.00
2023-11-27T03:05:18.675Z,100324.00
2023-11-27T03:07:46.195Z,100321.00
2023-11-27T03:10:14.296Z,100314.00
2023-11-27T03:12:41.447Z,100315.00
2023-11-27T03:15:08.840Z,100309.00
2023-11-27T03:17:37.409Z,100302.00
2023-11-27T03:20:05.962Z,100308.00
2023-11-27T03:22:33.013Z,100315.00
2023-11-27T03:25:00.467Z,100311.00
2023-11-27T03:27:27.401Z,100304.00
2023-11-27T03:29:54.486Z,100295.00
2023-11-27T03:32:21.403Z,100293.00
2023-11-27T03:34:48.367Z,100310.00
2023-11-27T03:37:15.333Z,100296.00
2023-11-27T03:39:42.255Z,100297.00
2023-11-27T03:42:09.117Z,100293.00
2023-11-27T03:44:36.034Z,100288.00
2023-11-27T03:47:03.097Z,100288.00
2023-11-27T03:49:30.037Z,100292.00
2023-11-27T03:51:56.919Z,100293.00
2023-11-27T03:54:24.063Z,100288.00
2023-11-27T03:56:50.949Z,100288.00
2023-11-27T03:59:19.937Z,100298.00
2023-11-27T04:01:47.018Z,100287.00
2023-11-27T04:04:14.434Z,100293.00
2023-11-27T04:06:41.416Z,100291.00
2023-11-27T04:09:08.297Z,100291.00
2023-11-27T04:11:35.212Z,100286.00
2023-11-27T04:14:02.108Z,100278.00
2023-11-27T04:16:29.059Z,100286.00
2023-11-27T04:18:56.014Z,100276.00
2023-11-27T04:21:22.963Z,100273.00
2023-11-27T04:23:50.121Z,100267.00
2023-11-27T04:26:17.620Z,100256.00
2023-11-27T04:28:44.571Z,100265.00
2023-11-27T04:31:12.413Z,100264.00
2023-11-27T04:33:39.688Z,100265.00
2023-11-27T04:36:07.441Z,100258.00
2023-11-27T04:38:34.756Z,100261.00
2023-11-27T04:41:04.779Z,100247.00
2023-11-27T04:43:31.753Z,100256.00
2023-11-27T04:45:59.284Z,100249.00
2023-11-27T04:48:26.349Z,100253.00
2023-11-27T04:50:53.253Z,100256.00
2023-11-27T04:53:20.192Z,100248.00
2023-11-27T04:55:47.168Z,100243.00
2023-11-27T04:58:14.170Z,100242.00
2023-11-27T05:00:41.309Z,100246.00
2023-11-27T05:03:08.326Z,100249.00
2023-11-27T05:05:35.238Z,100239.00
2023-11-27T05:08:02.126Z,100230.00
2023-11-27T05:10:29.505Z,100244.00
2023-11-27T05:12:57.181Z,100232.00
2023-11-27T05:15:24.095Z,100226.00
2023-11-27T05:17:52.932Z,100225.00
2023-11-27T05:20:20.088Z,100226.00
2023-11-27T05:22:47.355Z,100241.00
2023-11-27T05:25:14.450Z,100232.00
2023-11-27T05:27:41.447Z,100224.00
2023-11-27T05:30:08.819Z,100238.00
2023-11-27T05:32:36.129Z,100235.00
2023-11-27T05:35:03.192Z,100240.00
2023-11-27T05:37:30.112Z,100239.00
2023-11-27T05:39:57.142Z,100234.00
2023-11-27T05:42:27.901Z,100238.00
2023-11-27T05:45:00.724Z,100232.00
2023-11-27T05:47:28.588Z,100219.00
2023-11-27T05:49:55.866Z,100219.00
2023-11-27T05:52:22.925Z,100223.00
2023-11-27T05:54:50.097Z,100228.00
2023-11-27T05:57:17.120Z,100226.00
2023-11-27T05:59:44.071Z,100229.00
2023-11-27T06:02:11.025Z,100234.00
2023-11-27T06:04:37.991Z,100235.00
2023-11-27T06:07:05.280Z,100226.00
2023-11-27T06:09:32.200Z,100242.00
2023-11-27T06:11:59.260Z,100238.00
2023-11-27T06:14:26.275Z,100230.00
2023-11-27T06:16:53.261Z,100241.00
2023-11-27T06:19:20.304Z,100239.00
2023-11-27T06:21:47.241Z,100245.00
2023-11-27T06:24:14.159Z,100244.00
2023-11-27T06:26:41.115Z,100244.00
2023-11-27T06:29:08.104Z,100239.00
2023-11-27T06:31:36.514Z,100240.00
2023-11-27T06:34:03.610Z,100237.00
2023-11-27T06:36:30.559Z,100233.00
2023-11-27T06:38:57.448Z,100238.00
2023-11-27T06:41:26.374Z,100222.00
2023-11-27T06:43:53.351Z,100218.00
2023-11-27T06:46:20.419Z,100233.00
2023-11-27T06:48:47.381Z,100222.00
2023-11-27T06:51:15.473Z,100219.00
2023-11-27T06:53:42.430Z,100206.00
2023-11-27T06:56:10.785Z,100217.00
2023-11-27T06:58:38.374Z,100212.00
2023-11-27T07:01:12.339Z,100204.00
2023-11-27T07:03:39.500Z,100210.00
2023-11-27T07:06:07.323Z,100211.00
2023-11-27T07:08:36.020Z,100207.00
2023-11-27T07:11:04.245Z,100207.00
2023-11-27T07:13:31.314Z,100209.00
2023-11-27T07:15:58.364Z,100209.00
2023-11-27T07:18:29.098Z,100208.00
2023-11-27T07:21:01.759Z,100214.00
2023-11-27T07:23:29.255Z,100206.00
2023-11-27T07:25:57.542Z,100208.00
2023-11-27T07:28:25.001Z,100213.00
2023-11-27T07:30:51.929Z,100204.00
2023-11-27T07:33:18.929Z,100209.00
2023-11-27T07:35:45.845Z,100207.00
2023-11-27T07:38:12.865Z,100207.00
2023-11-27T07:40:39.855Z,100214.00
2023-11-27T07:43:12.378Z,100204.00
2023-11-27T07:45:39.708Z,100211.00
2023-11-27T07:48:06.797Z,100210.00
2023-11-27T07:50:34.288Z,100205.00
2023-11-27T07:53:01.530Z,100211.00
2023-11-27T07:55:29.360Z,100217.00
2023-11-27T07:57:56.491Z,100222.00
2023-11-27T08:00:27.603Z,100227.00
2023-11-27T08:02:54.842Z,100218.00
2023-11-27T08:05:23.825Z,100227.00
2023-11-27T08:07:51.194Z,100232.00
2023-11-27T08:10:18.530Z,100225.00
2023-11-27T08:12:45.487Z,100235.00
2023-11-27T08:15:19.353Z,100227.00
2023-11-27T08:17:46.992Z,100231.00
2023-11-27T08:20:16.281Z,100221.00
2023-11-27T08:22:43.884Z,100230.00
2023-11-27T08:25:11.986Z,100225.00
2023-11-27T08:27:44.072Z,100226.00
2023-11-27T08:30:12.106Z,100227.00
2023-11-27T08:32:39.287Z,100223.00
2023-11-27T08:35:08.019Z,100216.00
2023-11-27T08:37:37.848Z,100225.00
2023-11-27T08:40:08.631Z,100228.00
2023-11-27T08:42:35.865Z,100216.00
2023-11-27T08:45:19.765Z,100224.00
2023-11-27T08:47:52.747Z,100215.00
2023-11-27T08:50:22.952Z,100213.00
2023-11-27T08:52:50.001Z,100221.00
2023-11-27T08:55:20.077Z,100218.00
2023-11-27T08:57:47.452Z,100221.00
2023-11-27T09:00:20.820Z,100213.00
2023-11-27T09:02:49.567Z,100215.00
2023-11-27T09:05:16.617Z,100212.00
2023-11-27T09:07:44.948Z,100209.00
2023-11-27T09:10:12.025Z,100205.00
2023-11-27T09:12:39.953Z,100208.00
2023-11-27T09:15:07.342Z,100205.00
2023-11-27T09:17:34.364Z,100213.00
2023-11-27T09:20:01.394Z,100217.00
2023-11-27T09:22:28.335Z,100203.00
2023-11-27T09:24:55.204Z,100204.00
2023-11-27T09:27:23.672Z,100219.00
2023-11-27T09:29:50.646Z,100212.00
2023-11-27T09:32:17.824Z,100221.00
2023-11-27T09:34:44.911Z,100216.00
2023-11-27T09:37:11.994Z,100204.00
2023-11-27T09:39:39.016Z,100204.00
2023-11-27T09:42:06.059Z,100212.00
2023-11-27T09:44:33.880Z,100200.00
2023-11-27T09:47:03.530Z,100205.00
2023-11-27T09:49:33.130Z,100204.00
2023-11-27T09:52:03.877Z,100205.00
2023-11-27T09:54:35.488Z,100204.00
2023-11-27T09:57:03.644Z,100204.00
2023-11-27T09:59:33.408Z,100184.00
2023-11-27T10:02:03.367Z,100189.00
2023-11-27T10:04:31.882Z,100190.00
2023-11-27T10:06:59.060Z,100199.00
2023-11-27T10:09:26.055Z,100204.00
2023-11-27T10:12:00.984Z,100199.00
2023-11-27T10:14:37.034Z,100204.00
2023-11-27T10:17:07.351Z,100201.00
2023-11-27T10:19:38.988Z,100205.00
2023-11-27T10:22:10.395Z,100200.00
2023-11-27T10:24:37.375Z,100191.00
2023-11-27T10:27:10.362Z,100200.00
2023-11-27T10:29:37.807Z,100204.00
2023-11-27T10:32:04.950Z,100208.00
2023-11-27T10:34:33.660Z,100227.00
2023-11-27T10:37:04.305Z,100242.00
2023-11-27T10:39:34.358Z,100241.00
2023-11-27T10:42:05.644Z,100272.00
2023-11-27T10:44:36.903Z,100237.00
2023-11-27T10:47:11.620Z,100257.00
2023-11-27T10:49:40.215Z,100247.00
2023-11-27T10:52:10.648Z,100240.00
2023-11-27T10:54:41.380Z,100233.00
2023-11-27T10:57:09.428Z,100243.00
2023-11-27T10:59:43.932Z,100252.00
2023-11-27T11:02:14.848Z,100265.00
2023-11-27T11:04:56.287Z,100258.00
2023-11-27T11:07:34.078Z,100250.00
2023-11-27T11:10:06.674Z,100259.00
2023-11-27T11:12:33.807Z,100276.00
2023-11-27T11:15:01.248Z,100269.00
2023-11-27T11:18:01.883Z,100256.00
2023-11-27T11:20:51.080Z,100279.00
2023-11-27T11:23:40.853Z,100265.00
2023-11-27T11:26:41.010Z,100267.00
2023-11-27T11:29:15.991Z,100280.00
2023-11-27T11:31:50.039Z,100270.00
2023-11-27T11:34:24.322Z,100275.00
2023-11-27T11:37:01.438Z,100242.00
2023-11-27T11:39:28.666Z,100253.00
2023-11-27T11:42:06.217Z,100201.00
2023-11-27T11:44:35.350Z,100225.00
2023-11-27T11:47:26.578Z,100195.00
2023-11-27T11:50:20.938Z,100192.00
2023-11-27T11:52:50.685Z,100163.00
2023-11-27T11:55:28.052Z,100167.00
2023-11-27T11:57:57.270Z,100154.00
2023-11-27T12:00:25.057Z,100149.00
2023-11-27T12:02:57.940Z,100152.00
2023-11-27T12:05:26.758Z,100134.00
2023-11-27T12:07:54.278Z,100145.00
2023-11-27T12:10:21.282Z,100149.00
2023-11-27T12:12:50.434Z,100124.00
2023-11-27T12:15:18.026Z,100141.00
2023-11-27T12:17:51.512Z,100134.00
2023-11-27T12:20:22.841Z,100126.00
2023-11-27T12:22:50.170Z,100111.00
2023-11-27T12:25:20.366Z,100126.00
2023-11-27T12:27:48.515Z,100113.00
2023-11-27T12:30:21.638Z,100118.00
2023-11-27T12:32:53.106Z,100102.00
2023-11-27T12:35:20.630Z,100097.00
2023-11-27T12:37:50.725Z,100077.00
2023-11-27T12:40:21.671Z,100085.00
2023-11-27T12:42:50.004Z,100073.00
2023-11-27T12:45:22.228Z,100082.00
2023-11-27T12:47:54.224Z,100066.00
2023-11-27T12:50:25.345Z,100073.00
2023-11-27T12:52:58.804Z,100062.00
2023-11-27T12:55:49.004Z,100056.00
2023-11-27T12:58:19.221Z,100070.00
2023-11-27T13:00:47.227Z,100065.00
2023-11-27T13:03:21.864Z,100067.00
2023-11-27T13:05:54.102Z,100066.00
2023-11-27T13:08:26.360Z,100060.00
2023-11-27T13:10:54.262Z,100052.00
2023-11-27T13:13:23.353Z,100067.00
2023-11-27T13:15:53.693Z,100065.00
2023-11-27T13:18:20.867Z,100062.00
2023-11-27T13:20:54.889Z,100048.00
2023-11-27T13:23:27.249Z,100042.00
2023-11-27T13:26:00.233Z,100041.00
2023-11-27T13:28:27.710Z,100040.00
2023-11-27T13:30:58.068Z,100040.00
2023-11-27T13:33:25.076Z,100046.00
2023-11-27T13:35:58.930Z,100060.00
2023-11-27T13:38:26.473Z,100063.00
2023-11-27T13:40:57.493Z,100056.00
2023-11-27T13:43:27.100Z,100052.00
2023-11-27T13:45:54.206Z,100061.00
2023-11-27T13:48:21.416Z,100040.00
2023-11-27T13:50:49.049Z,100043.00
2023-11-27T13:53:19.483Z,100042.00
2023-11-27T13:55:57.316Z,100030.00
2023-11-27T13:58:27.784Z,100042.00
2023-11-27T14:00:55.069Z,100046.00
2023-11-27T14:03:23.894Z,100053.00
2023-11-27T14:05:51.744Z,100045.00
2023-11-27T14:08:30.766Z,100049.00
2023-11-27T14:11:25.713Z,100053.00
2023-11-27T14:14:07.276Z,100040.00
2023-11-27T14:16:42.588Z,100032.00
2023-11-27T14:19:28.241Z,100026.00
2023-11-27T14:22:13.602Z,100028.00
2023-11-27T14:24:50.390Z,100023.00
2023-11-27T14:27:38.350Z,100024.00
2023-11-27T14:30:14.906Z,100012.00
2023-11-27T14:32:43.952Z,99997.00
2023-11-27T14:35:16.125Z,100000.00
2023-11-27T14:37:43.399Z,100004.00
2023-11-27T14:40:21.340Z,100005.00
2023-11-27T14:42:48.776Z,99991.00
2023-11-27T14:45:16.330Z,99985.00
2023-11-27T14:47:47.350Z,99991.00
2023-11-27T14:50:21.469Z,99994.00
2023-11-27T14:52:50.938Z,99983.00
2023-11-27T14:55:20.964Z,99980.00
2023-11-27T14:57:49.662Z,99975.00
2023-11-27T15:00:28.826Z,99974.00
2023-11-27T15:02:56.910Z,99976.00
2023-11-27T15:05:24.107Z,99984.00
2023-11-27T15:07:51.097Z,99975.00
2023-11-27T15:10:18.419Z,99963.00
2023-11-27T15:12:46.643Z,99964.00
2023-11-27T15:15:19.031Z,99966.00
2023-11-27T15:17:48.666Z,99967.00
2023-11-27T15:20:18.083Z,99976.00
2023-11-27T15:22:47.833Z,99976.00
2023-11-27T15:25:23.598Z,99969.00
2023-11-27T15:27:51.784Z,99976.00
2023-11-27T15:30:21.883Z,99960.00
2023-11-27T15:32:48.911Z,99981.00
2023-11-27T15:35:17.512Z,99972.00
2023-11-27T15:37:49.265Z,99974.00
2023-11-27T15:40:30.032Z,99962.00
2023-11-27T15:42:58.417Z,99975.00
2023-11-27T15:45:29.654Z,99968.00
2023-11-27T15:47:58.264Z,99968.00
2023-11-27T15:50:31.669Z,99971.00
2023-11-27T15:53:02.477Z,99969.00
2023-11-27T15:55:30.664Z,99975.00
2023-11-27T15:57:57.878Z,99978.00
2023-11-27T16:00:26.752Z,99985.00
2023-11-27T16:02:56.592Z,99975.00
2023-11-27T16:05:24.361Z,99984.00
2023-11-27T16:07:51.961Z,99968.00
2023-11-27T16:10:23.017Z,99963.00
2023-11-27T16:12:51.373Z,99971.00
2023-11-27T16:15:19.683Z,99974.00
2023-11-27T16:20:19.565Z,99970.00
2023-11-27T16:22:47.017Z,99972.00
2023-11-27T16:25:19.307Z,99962.00
2023-11-27T16:27:49.127Z,99961.00
2023-11-27T16:30:22.610Z,99970.00
2023-11-27T16:32:51.368Z,99959.00
2023-11-27T16:35:22.788Z,99949.00
2023-11-27T16:37:50.925Z,99953.00
2023-11-27T16:40:22.210Z,99949.00
2023-11-27T16:42:54.715Z,99952.00
2023-11-27T16:45:27.925Z,99945.00
2023-11-27T16:47:59.021Z,99939.00
2023-11-27T16:50:27.429Z,99944.00
2023-11-27T16:52:58.145Z,99940.00
2023-11-27T16:55:31.114Z,99940.00
2023-11-27T16:58:12.004Z,99953.00
2023-11-27T17:00:39.767Z,99934.00
2023-11-27T17:03:10.922Z,99933.00
2023-11-27T17:05:38.622Z,99946.00
2023-11-27T17:08:12.185Z,99922.00
2023-11-27T17:10:52.275Z,99940.00
2023-11-27T17:13:20.317Z,99939.00
2023-11-27T17:15:47.630Z,99925.00
2023-11-27T17:18:16.103Z,99935.00
2023-11-27T17:20:44.507Z,99934.00
2023-11-27T17:23:12.705Z,99935.00
2023-11-27T17:25:40.108Z,99931.00
2023-11-27T17:28:08.633Z,99927.00
2023-11-27T17:30:36.477Z,99925.00
2023-11-27T17:33:06.695Z,99917.00
2023-11-27T17:35:35.911Z,99924.00
2023-11-27T17:38:07.593Z,99913.00
2023-11-27T17:40:35.231Z,99903.00
2023-11-27T17:43:02.389Z,99904.00
2023-11-27T17:45:29.649Z,99909.00
2023-11-27T17:48:00.624Z,99904.00
2023-11-27T17:50:30.595Z,99909.00
2023-11-27T17:52:58.715Z,99895.00
2023-11-27T17:55:38.407Z,99894.00
2023-11-27T17:58:09.986Z,99894.00
2023-11-27T18:00:37.018Z,99898.00
2023-11-27T18:03:04.188Z,99897.00
2023-11-27T18:05:32.391Z,99896.00
2023-11-27T18:08:01.271Z,99887.00
2023-11-27T18:10:28.341Z,99882.00
2023-11-27T18:12:55.308Z,99896.00
2023-11-27T18:15:22.890Z,99880.00
2023-11-27T18:17:51.050Z,99882.00
2023-11-27T18:20:19.659Z,99886.00
2023-11-27T18:22:49.242Z,99884.00
2023-11-27T18:25:20.682Z,99882.00
2023-11-27T18:27:49.211Z,99882.00
2023-11-27T18:30:20.627Z,99884.00
2023-11-27T18:32:48.098Z,99881.00
2023-11-27T18:35:17.269Z,99901.00
2023-11-27T18:37:48.845Z,99887.00
2023-11-27T18:40:18.926Z,99897.00
2023-11-27T18:42:49.613Z,99902.00
2023-11-27T18:45:19.425Z,99896.00
2023-11-27T18:47:47.633Z,99899.00
2023-11-27T18:50:14.734Z,99893.00
2023-11-27T18:52:43.595Z,99911.00
2023-11-27T18:55:10.772Z,99908.00
2023-11-27T18:57:37.813Z,99899.00
2023-11-27T19:00:06.457Z,99918.00
2023-11-27T19:02:34.016Z,99922.00
2023-11-27T19:05:01.178Z,99927.00
2023-11-27T19:07:28.186Z,99921.00
2023-11-27T19:09:56.351Z,99932.00
2023-11-27T19:12:23.391Z,99927.00
2023-11-27T19:14:53.769Z,99915.00
2023-11-27T19:17:21.504Z,99914.00
2023-11-27T19:19:49.733Z,99910.00
2023-11-27T19:22:17.363Z,99915.00
2023-11-27T19:24:47.166Z,99925.00
2023-11-27T19:27:14.221Z,99922.00
2023-11-27T19:29:41.204Z,99916.00
2023-11-27T19:32:08.590Z,99927.00
2023-11-27T19:34:35.994Z,99920.00
2023-11-27T19:37:05.019Z,99922.00
2023-11-27T19:39:32.073Z,99917.00
2023-11-27T19:41:59.290Z,99908.00
2023-11-27T19:44:26.428Z,99895.00
2023-11-27T19:46:57.331Z,99899.00
2023-11-27T19:49:26.993Z,99901.00
2023-11-27T19:51:54.751Z,99889.00
2023-11-27T19:54:23.646Z,99897.00
2023-11-27T19:56:51.128Z,99891.00
2023-11-27T19:59:18.820Z,99882.00
2023-11-27T20:01:46.063Z,99895.00
2023-11-27T20:04:13.416Z,99898.00
2023-11-27T20:06:43.024Z,99876.00
2023-11-27T20:09:13.568Z,99884.00
2023-11-27T20:11:41.378Z,99881.00
2023-11-27T20:14:09.570Z,99864.00
2023-11-27T20:16:37.010Z,99883.00
2023-11-27T20:19:06.717Z,99873.00
2023-11-27T20:21:34.402Z,99885.00
2023-11-27T20:24:01.668Z,99878.00
2023-11-27T20:26:29.782Z,99886.00
2023-11-27T20:29:02.093Z,99885.00
2023-11-27T20:31:36.540Z,99855.00
2023-11-27T20:34:05.320Z,99813.00
2023-11-27T20:36:33.705Z,99810.00
2023-11-27T20:39:01.390Z,99821.00
2023-11-27T20:41:28.615Z,99795.00
2023-11-27T20:43:59.554Z,99812.00
2023-11-27T20:46:28.786Z,99800.00
2023-11-27T20:48:59.602Z,99796.00
2023-11-27T20:51:31.263Z,99812.00
2023-11-27T20:53:58.289Z,99818.00
2023-11-27T20:56:27.235Z,99807.00
2023-11-27T20:58:54.397Z,99804.00
2023-11-27T21:01:24.743Z,99806.00
2023-11-27T21:03:52.943Z,99811.00
2023-11-27T21:06:24.921Z,99807.00
2023-11-27T21:08:52.025Z,99810.00
2023-11-27T21:11:21.328Z,99818.00
2023-11-27T21:13:48.933Z,99819.00
2023-11-27T21:16:16.834Z,99823.00
2023-11-27T21:18:44.386Z,99824.00
2023-11-27T21:21:42.503Z,99820.00
2023-11-27T21:31:43.677Z,99826.00
2023-11-27T21:34:10.713Z,99808.00
2023-11-27T21:36:37.684Z,99819.00
2023-11-27T21:39:05.202Z,99810.00
2023-11-27T21:41:33.896Z,99803.00
2023-11-27T21:44:01.320Z,99795.00
2023-11-27T21:46:28.535Z,99796.00
2023-11-27T21:48:56.107Z,99801.00
2023-11-27T21:51:23.314Z,99797.00
2023-11-27T21:53:50.240Z,99806.00
2023-11-27T21:56:17.565Z,99802.00
2023-11-27T21:58:44.532Z,99823.00
2023-11-27T22:01:17.316Z,99811.00
2023-11-27T22:03:45.296Z,99817.00
2023-11-27T22:06:12.303Z,99808.00
2023-11-27T22:08:39.216Z,99821.00
2023-11-27T22:11:06.646Z,99822.00
2023-11-27T22:13:34.870Z,99812.00
2023-11-27T22:16:01.859Z,99826.00
2023-11-27T22:18:28.793Z,99826.00
2023-11-27T22:20:55.784Z,99821.00
2023-11-27T22:23:22.713Z,99821.00
2023-11-27T22:25:49.731Z,99801.00
2023-11-27T22:28:17.483Z,99808.00
2023-11-27T22:30:44.536Z,99811.00
2023-11-27T22:33:11.569Z,99797.00
2023-11-27T22:35:39.318Z,99804.00
2023-11-27T22:38:06.536Z,99809.00
2023-11-27T22:40:34.189Z,99809.00
2023-11-27T22:43:02.049Z,99817.00
2023-11-27T22:45:28.996Z,99804.00
2023-11-27T22:47:55.950Z,99799.00
2023-11-27T22:50:22.974Z,99802.00
2023-11-27T22:52:49.871Z,99793.00
2023-11-27T22:55:16.983Z,99791.00
2023-11-27T22:57:45.245Z,99794.00
2023-11-27T23:00:20.310Z,99801.00
2023-11-27T23:02:47.404Z,99803.00
2023-11-27T23:05:14.492Z,99795.00
2023-11-27T23:07:41.471Z,99787.00
2023-11-27T23:10:09.370Z,99794.00
2023-11-27T23:12:41.850Z,99788.00
2023-11-27T23:15:13.412Z,99788.00
2023-11-27T23:17:41.560Z,99769.00
2023-11-27T23:20:09.549Z,99783.00
2023-11-27T23:22:36.516Z,99788.00
2023-11-27T23:25:03.630Z,99783.00
2023-11-27T23:27:30.571Z,99792.00
2023-11-27T23:29:57.475Z,99785.00
2023-11-27T23:32:25.142Z,99810.00
2023-11-27T23:34:52.180Z,99790.00
2023-11-27T23:37:19.571Z,99802.00
2023-11-27T23:39:46.668Z,99812.00
2023-11-27T23:42:13.656Z,99806.00
2023-11-27T23:44:41.081Z,99807.00
2023-11-27T23:47:08.128Z,99813.00
2023-11-27T23:49:37.282Z,99813.00
2023-11-27T23:52:04.557Z,99801.00
2023-11-27T23:54:31.447Z,99826.00
2023-11-27T23:56:58.383Z,99822.00
2023-11-27T23:59:25.331Z,99818.00
